sensor_id;sensor_type;location;lat;lon;timestamp;P1;durP1;ratioP1;P2;durP2;ratioP2
13571;SDS011;6857;53.484;10.216;2023-07-28T00:00:08;6.73;;;5.87;;
13571;SDS011;6857;53.484;10.216;2023-07-28T00:02:34;6.40;;;5.73;;
13571;SDS011;6857;53.484;10.216;2023-07-28T00:05:00;6.37;;;5.77;;
13571;SDS011;6857;53.484;10.216;2023-07-28T00:07:26;6.30;;;5.70;;
13571;SDS011;6857;53.484;10.216;2023-07-28T00:09:52;7.93;;;7.13;;
13571;SDS011;6857;53.484;10.216;2023-07-28T00:12:18;7.13;;;6.43;;
13571;SDS011;6857;53.484;10.216;2023-07-28T00:14:44;6.87;;;6.27;;
13571;SDS011;6857;53.484;10.216;2023-07-28T00:17:10;6.00;;;5.50;;
13571;SDS011;6857;53.484;10.216;2023-07-28T00:19:36;6.03;;;5.53;;
13571;SDS011;6857;53.484;10.216;2023-07-28T00:22:02;7.20;;;5.93;;
13571;SDS011;6857;53.484;10.216;2023-07-28T00:24:28;5.47;;;4.97;;
13571;SDS011;6857;53.484;10.216;2023-07-28T00:26:54;5.07;;;4.30;;
13571;SDS011;6857;53.484;10.216;2023-07-28T00:29:20;5.07;;;4.57;;
13571;SDS011;6857;53.484;10.216;2023-07-28T00:31:46;4.70;;;4.30;;
13571;SDS011;6857;53.484;10.216;2023-07-28T00:34:12;4.93;;;4.43;;
13571;SDS011;6857;53.484;10.216;2023-07-28T00:36:38;4.50;;;4.10;;
13571;SDS011;6857;53.484;10.216;2023-07-28T00:39:04;4.37;;;4.07;;
13571;SDS011;6857;53.484;10.216;2023-07-28T00:41:30;4.97;;;4.07;;
13571;SDS011;6857;53.484;10.216;2023-07-28T00:43:56;4.03;;;3.63;;
13571;SDS011;6857;53.484;10.216;2023-07-28T00:46:22;4.93;;;3.47;;
13571;SDS011;6857;53.484;10.216;2023-07-28T00:48:48;4.17;;;3.77;;
13571;SDS011;6857;53.484;10.216;2023-07-28T00:51:14;4.40;;;4.00;;
13571;SDS011;6857;53.484;10.216;2023-07-28T00:53:40;4.43;;;4.03;;
13571;SDS011;6857;53.484;10.216;2023-07-28T00:56:06;4.77;;;4.10;;
13571;SDS011;6857;53.484;10.216;2023-07-28T00:58:33;8.67;;;4.00;;
13571;SDS011;6857;53.484;10.216;2023-07-28T01:00:59;4.80;;;3.93;;
13571;SDS011;6857;53.484;10.216;2023-07-28T01:03:24;3.90;;;3.60;;
13571;SDS011;6857;53.484;10.216;2023-07-28T01:05:55;4.10;;;3.70;;
13571;SDS011;6857;53.484;10.216;2023-07-28T01:08:26;4.20;;;3.80;;
13571;SDS011;6857;53.484;10.216;2023-07-28T01:10:52;5.20;;;4.00;;
13571;SDS011;6857;53.484;10.216;2023-07-28T01:13:19;3.83;;;3.53;;
13571;SDS011;6857;53.484;10.216;2023-07-28T01:15:45;3.83;;;3.53;;
13571;SDS011;6857;53.484;10.216;2023-07-28T01:18:11;4.23;;;2.90;;
13571;SDS011;6857;53.484;10.216;2023-07-28T01:20:38;3.57;;;3.07;;
13571;SDS011;6857;53.484;10.216;2023-07-28T01:23:20;3.50;;;3.20;;
13571;SDS011;6857;53.484;10.216;2023-07-28T01:28:18;3.73;;;3.43;;
13571;SDS011;6857;53.484;10.216;2023-07-28T01:30:44;4.00;;;3.70;;
13571;SDS011;6857;53.484;10.216;2023-07-28T01:33:11;3.13;;;2.93;;
13571;SDS011;6857;53.484;10.216;2023-07-28T01:35:37;3.23;;;3.00;;
13571;SDS011;6857;53.484;10.216;2023-07-28T01:38:03;2.90;;;2.70;;
13571;SDS011;6857;53.484;10.216;2023-07-28T01:40:29;3.23;;;3.03;;
13571;SDS011;6857;53.484;10.216;2023-07-28T01:42:55;3.03;;;2.60;;
13571;SDS011;6857;53.484;10.216;2023-07-28T01:45:21;3.27;;;3.00;;
13571;SDS011;6857;53.484;10.216;2023-07-28T01:47:48;3.20;;;2.90;;
13571;SDS011;6857;53.484;10.216;2023-07-28T01:50:13;3.23;;;2.93;;
13571;SDS011;6857;53.484;10.216;2023-07-28T01:52:39;3.10;;;2.90;;
13571;SDS011;6857;53.484;10.216;2023-07-28T01:55:05;3.27;;;2.97;;
13571;SDS011;6857;53.484;10.216;2023-07-28T01:57:38;2.90;;;2.70;;
13571;SDS011;6857;53.484;10.216;2023-07-28T02:00:04;3.50;;;3.20;;
13571;SDS011;6857;53.484;10.216;2023-07-28T02:02:30;3.20;;;2.90;;
13571;SDS011;6857;53.484;10.216;2023-07-28T02:04:56;2.87;;;2.67;;
13571;SDS011;6857;53.484;10.216;2023-07-28T02:07:22;2.93;;;2.73;;
13571;SDS011;6857;53.484;10.216;2023-07-28T02:09:48;2.90;;;2.70;;
13571;SDS011;6857;53.484;10.216;2023-07-28T02:12:14;3.33;;;3.10;;
13571;SDS011;6857;53.484;10.216;2023-07-28T02:14:40;3.13;;;2.87;;
13571;SDS011;6857;53.484;10.216;2023-07-28T02:17:06;3.57;;;3.20;;
13571;SDS011;6857;53.484;10.216;2023-07-28T02:19:32;3.87;;;3.30;;
13571;SDS011;6857;53.484;10.216;2023-07-28T02:21:58;2.93;;;2.70;;
13571;SDS011;6857;53.484;10.216;2023-07-28T02:24:24;3.53;;;3.20;;
13571;SDS011;6857;53.484;10.216;2023-07-28T02:26:50;3.57;;;3.20;;
13571;SDS011;6857;53.484;10.216;2023-07-28T02:29:16;3.50;;;3.20;;
13571;SDS011;6857;53.484;10.216;2023-07-28T02:31:41;3.27;;;3.07;;
13571;SDS011;6857;53.484;10.216;2023-07-28T02:34:08;3.87;;;3.57;;
13571;SDS011;6857;53.484;10.216;2023-07-28T02:36:33;3.70;;;3.40;;
13571;SDS011;6857;53.484;10.216;2023-07-28T02:38:59;3.30;;;3.00;;
13571;SDS011;6857;53.484;10.216;2023-07-28T02:41:25;3.73;;;3.33;;
13571;SDS011;6857;53.484;10.216;2023-07-28T02:43:51;3.67;;;3.37;;
13571;SDS011;6857;53.484;10.216;2023-07-28T02:46:17;3.20;;;3.00;;
13571;SDS011;6857;53.484;10.216;2023-07-28T02:48:43;3.33;;;3.10;;
13571;SDS011;6857;53.484;10.216;2023-07-28T02:51:09;3.13;;;2.93;;
13571;SDS011;6857;53.484;10.216;2023-07-28T02:53:35;3.40;;;3.10;;
13571;SDS011;6857;53.484;10.216;2023-07-28T02:56:01;4.00;;;3.00;;
13571;SDS011;6857;53.484;10.216;2023-07-28T02:58:27;3.20;;;2.90;;
13571;SDS011;6857;53.484;10.216;2023-07-28T03:00:53;7.03;;;3.60;;
13571;SDS011;6857;53.484;10.216;2023-07-28T03:03:19;3.90;;;3.60;;
13571;SDS011;6857;53.484;10.216;2023-07-28T03:05:45;3.33;;;3.13;;
13571;SDS011;6857;53.484;10.216;2023-07-28T03:08:11;3.80;;;3.50;;
13571;SDS011;6857;53.484;10.216;2023-07-28T03:10:37;3.83;;;3.33;;
13571;SDS011;6857;53.484;10.216;2023-07-28T03:13:03;3.43;;;3.13;;
13571;SDS011;6857;53.484;10.216;2023-07-28T03:15:29;4.20;;;3.23;;
13571;SDS011;6857;53.484;10.216;2023-07-28T03:17:55;3.83;;;3.40;;
13571;SDS011;6857;53.484;10.216;2023-07-28T03:20:21;3.63;;;3.33;;
13571;SDS011;6857;53.484;10.216;2023-07-28T03:22:47;3.70;;;3.40;;
13571;SDS011;6857;53.484;10.216;2023-07-28T03:25:13;3.90;;;3.50;;
13571;SDS011;6857;53.484;10.216;2023-07-28T03:27:38;3.87;;;3.47;;
13571;SDS011;6857;53.484;10.216;2023-07-28T03:30:05;3.77;;;3.40;;
13571;SDS011;6857;53.484;10.216;2023-07-28T03:32:32;4.27;;;3.80;;
13571;SDS011;6857;53.484;10.216;2023-07-28T03:34:58;4.13;;;3.70;;
13571;SDS011;6857;53.484;10.216;2023-07-28T03:37:24;4.10;;;2.77;;
13571;SDS011;6857;53.484;10.216;2023-07-28T03:39:49;2.93;;;2.73;;
13571;SDS011;6857;53.484;10.216;2023-07-28T03:42:15;3.40;;;3.10;;
13571;SDS011;6857;53.484;10.216;2023-07-28T03:44:41;3.20;;;2.90;;
13571;SDS011;6857;53.484;10.216;2023-07-28T03:47:07;2.80;;;2.60;;
13571;SDS011;6857;53.484;10.216;2023-07-28T03:49:34;2.80;;;2.60;;
13571;SDS011;6857;53.484;10.216;2023-07-28T03:52:00;3.60;;;2.70;;
13571;SDS011;6857;53.484;10.216;2023-07-28T03:54:26;2.50;;;2.30;;
13571;SDS011;6857;53.484;10.216;2023-07-28T03:56:52;4.10;;;2.70;;
13571;SDS011;6857;53.484;10.216;2023-07-28T03:59:18;2.73;;;2.53;;
13571;SDS011;6857;53.484;10.216;2023-07-28T04:01:44;2.97;;;2.77;;
13571;SDS011;6857;53.484;10.216;2023-07-28T04:04:10;3.13;;;2.83;;
13571;SDS011;6857;53.484;10.216;2023-07-28T04:06:44;4.13;;;3.07;;
13571;SDS011;6857;53.484;10.216;2023-07-28T04:09:10;3.40;;;3.10;;
13571;SDS011;6857;53.484;10.216;2023-07-28T04:11:36;5.63;;;3.40;;
13571;SDS011;6857;53.484;10.216;2023-07-28T04:14:02;4.80;;;2.80;;
13571;SDS011;6857;53.484;10.216;2023-07-28T04:16:28;3.30;;;3.00;;
13571;SDS011;6857;53.484;10.216;2023-07-28T04:18:54;3.47;;;3.17;;
13571;SDS011;6857;53.484;10.216;2023-07-28T04:21:20;3.13;;;2.87;;
13571;SDS011;6857;53.484;10.216;2023-07-28T04:23:46;4.37;;;2.80;;
13571;SDS011;6857;53.484;10.216;2023-07-28T04:26:12;3.87;;;2.83;;
13571;SDS011;6857;53.484;10.216;2023-07-28T04:28:38;3.27;;;2.60;;
13571;SDS011;6857;53.484;10.216;2023-07-28T04:31:04;2.50;;;2.30;;
13571;SDS011;6857;53.484;10.216;2023-07-28T04:33:30;2.90;;;2.70;;
13571;SDS011;6857;53.484;10.216;2023-07-28T04:35:56;2.87;;;2.67;;
13571;SDS011;6857;53.484;10.216;2023-07-28T04:38:22;2.60;;;2.40;;
13571;SDS011;6857;53.484;10.216;2023-07-28T04:40:48;3.20;;;3.00;;
13571;SDS011;6857;53.484;10.216;2023-07-28T04:43:14;2.27;;;2.17;;
13571;SDS011;6857;53.484;10.216;2023-07-28T04:45:40;2.80;;;2.50;;
13571;SDS011;6857;53.484;10.216;2023-07-28T04:48:06;2.80;;;2.20;;
13571;SDS011;6857;53.484;10.216;2023-07-28T04:50:32;3.20;;;2.90;;
13571;SDS011;6857;53.484;10.216;2023-07-28T04:52:58;2.60;;;2.40;;
13571;SDS011;6857;53.484;10.216;2023-07-28T04:55:24;2.97;;;2.77;;
13571;SDS011;6857;53.484;10.216;2023-07-28T04:57:52;2.80;;;2.60;;
13571;SDS011;6857;53.484;10.216;2023-07-28T05:00:17;3.20;;;2.90;;
13571;SDS011;6857;53.484;10.216;2023-07-28T05:02:43;3.50;;;2.43;;
13571;SDS011;6857;53.484;10.216;2023-07-28T05:05:09;5.13;;;3.00;;
13571;SDS011;6857;53.484;10.216;2023-07-28T05:07:35;3.13;;;2.93;;
13571;SDS011;6857;53.484;10.216;2023-07-28T05:10:01;3.50;;;3.20;;
13571;SDS011;6857;53.484;10.216;2023-07-28T05:12:28;2.70;;;2.50;;
13571;SDS011;6857;53.484;10.216;2023-07-28T05:14:53;8.73;;;7.70;;
13571;SDS011;6857;53.484;10.216;2023-07-28T05:17:19;2.83;;;2.63;;
13571;SDS011;6857;53.484;10.216;2023-07-28T05:19:45;5.47;;;2.50;;
13571;SDS011;6857;53.484;10.216;2023-07-28T05:22:11;6.50;;;5.83;;
13571;SDS011;6857;53.484;10.216;2023-07-28T05:24:37;2.60;;;2.40;;
13571;SDS011;6857;53.484;10.216;2023-07-28T05:27:03;3.57;;;3.27;;
13571;SDS011;6857;53.484;10.216;2023-07-28T05:29:29;3.27;;;2.97;;
13571;SDS011;6857;53.484;10.216;2023-07-28T05:31:57;2.20;;;2.00;;
13571;SDS011;6857;53.484;10.216;2023-07-28T05:34:23;2.37;;;2.27;;
13571;SDS011;6857;53.484;10.216;2023-07-28T05:36:49;2.70;;;2.20;;
13571;SDS011;6857;53.484;10.216;2023-07-28T05:39:15;2.03;;;1.83;;
13571;SDS011;6857;53.484;10.216;2023-07-28T05:41:41;2.00;;;1.90;;
13571;SDS011;6857;53.484;10.216;2023-07-28T05:44:07;2.13;;;1.70;;
13571;SDS011;6857;53.484;10.216;2023-07-28T05:46:33;1.73;;;1.50;;
13571;SDS011;6857;53.484;10.216;2023-07-28T05:48:59;1.60;;;1.50;;
13571;SDS011;6857;53.484;10.216;2023-07-28T05:51:25;1.17;;;1.07;;
13571;SDS011;6857;53.484;10.216;2023-07-28T05:53:51;2.30;;;2.00;;
13571;SDS011;6857;53.484;10.216;2023-07-28T05:56:17;2.10;;;1.30;;
13571;SDS011;6857;53.484;10.216;2023-07-28T05:58:47;1.60;;;1.50;;
13571;SDS011;6857;53.484;10.216;2023-07-28T06:01:13;1.80;;;1.70;;
13571;SDS011;6857;53.484;10.216;2023-07-28T06:03:39;1.60;;;1.50;;
13571;SDS011;6857;53.484;10.216;2023-07-28T06:06:05;2.37;;;2.17;;
13571;SDS011;6857;53.484;10.216;2023-07-28T06:08:32;3.20;;;2.87;;
13571;SDS011;6857;53.484;10.216;2023-07-28T06:10:58;2.40;;;2.20;;
13571;SDS011;6857;53.484;10.216;2023-07-28T06:13:24;4.37;;;2.30;;
13571;SDS011;6857;53.484;10.216;2023-07-28T06:15:50;1.70;;;1.60;;
13571;SDS011;6857;53.484;10.216;2023-07-28T06:18:19;1.53;;;1.43;;
13571;SDS011;6857;53.484;10.216;2023-07-28T06:20:47;1.30;;;1.20;;
13571;SDS011;6857;53.484;10.216;2023-07-28T06:23:13;1.57;;;1.47;;
13571;SDS011;6857;53.484;10.216;2023-07-28T06:25:39;2.03;;;1.90;;
13571;SDS011;6857;53.484;10.216;2023-07-28T06:28:10;1.77;;;1.67;;
13571;SDS011;6857;53.484;10.216;2023-07-28T06:30:37;2.30;;;2.10;;
13571;SDS011;6857;53.484;10.216;2023-07-28T06:33:05;3.03;;;2.83;;
13571;SDS011;6857;53.484;10.216;2023-07-28T06:35:31;3.63;;;2.90;;
13571;SDS011;6857;53.484;10.216;2023-07-28T06:37:57;2.90;;;2.70;;
13571;SDS011;6857;53.484;10.216;2023-07-28T06:40:23;3.10;;;2.90;;
13571;SDS011;6857;53.484;10.216;2023-07-28T06:42:49;2.57;;;2.37;;
13571;SDS011;6857;53.484;10.216;2023-07-28T06:45:15;3.00;;;2.30;;
13571;SDS011;6857;53.484;10.216;2023-07-28T06:47:41;2.97;;;2.77;;
13571;SDS011;6857;53.484;10.216;2023-07-28T06:50:08;1.93;;;1.83;;
13571;SDS011;6857;53.484;10.216;2023-07-28T06:52:34;3.47;;;3.17;;
13571;SDS011;6857;53.484;10.216;2023-07-28T06:54:59;2.23;;;2.13;;
13571;SDS011;6857;53.484;10.216;2023-07-28T06:57:25;1.80;;;1.70;;
13571;SDS011;6857;53.484;10.216;2023-07-28T06:59:51;2.50;;;1.60;;
13571;SDS011;6857;53.484;10.216;2023-07-28T07:02:17;2.27;;;2.07;;
13571;SDS011;6857;53.484;10.216;2023-07-28T07:04:43;1.73;;;1.50;;
13571;SDS011;6857;53.484;10.216;2023-07-28T07:07:09;1.90;;;1.57;;
13571;SDS011;6857;53.484;10.216;2023-07-28T07:09:35;1.47;;;1.37;;
13571;SDS011;6857;53.484;10.216;2023-07-28T07:12:02;1.50;;;1.40;;
13571;SDS011;6857;53.484;10.216;2023-07-28T07:14:28;1.50;;;1.40;;
13571;SDS011;6857;53.484;10.216;2023-07-28T07:16:54;1.30;;;1.20;;
13571;SDS011;6857;53.484;10.216;2023-07-28T07:19:20;1.47;;;1.33;;
13571;SDS011;6857;53.484;10.216;2023-07-28T07:21:46;1.07;;;0.97;;
13571;SDS011;6857;53.484;10.216;2023-07-28T07:24:12;2.23;;;1.10;;
13571;SDS011;6857;53.484;10.216;2023-07-28T07:26:42;1.80;;;1.10;;
13571;SDS011;6857;53.484;10.216;2023-07-28T07:29:08;2.23;;;1.40;;
13571;SDS011;6857;53.484;10.216;2023-07-28T07:31:37;1.40;;;1.30;;
13571;SDS011;6857;53.484;10.216;2023-07-28T07:34:03;2.57;;;1.20;;
13571;SDS011;6857;53.484;10.216;2023-07-28T07:36:29;1.70;;;1.60;;
13571;SDS011;6857;53.484;10.216;2023-07-28T07:38:56;1.33;;;1.00;;
13571;SDS011;6857;53.484;10.216;2023-07-28T07:41:22;3.30;;;1.00;;
13571;SDS011;6857;53.484;10.216;2023-07-28T07:43:48;1.30;;;1.10;;
13571;SDS011;6857;53.484;10.216;2023-07-28T07:46:15;1.20;;;1.10;;
13571;SDS011;6857;53.484;10.216;2023-07-28T07:48:41;1.40;;;1.10;;
13571;SDS011;6857;53.484;10.216;2023-07-28T07:51:08;1.53;;;1.20;;
13571;SDS011;6857;53.484;10.216;2023-07-28T07:53:34;1.23;;;1.10;;
13571;SDS011;6857;53.484;10.216;2023-07-28T07:56:04;1.10;;;1.00;;
13571;SDS011;6857;53.484;10.216;2023-07-28T07:58:30;2.17;;;1.73;;
13571;SDS011;6857;53.484;10.216;2023-07-28T08:00:56;1.73;;;1.30;;
13571;SDS011;6857;53.484;10.216;2023-07-28T08:03:22;1.27;;;1.17;;
13571;SDS011;6857;53.484;10.216;2023-07-28T08:05:49;3.60;;;1.50;;
13571;SDS011;6857;53.484;10.216;2023-07-28T08:08:15;1.37;;;1.27;;
13571;SDS011;6857;53.484;10.216;2023-07-28T08:10:42;1.63;;;1.53;;
13571;SDS011;6857;53.484;10.216;2023-07-28T08:13:08;2.10;;;1.20;;
13571;SDS011;6857;53.484;10.216;2023-07-28T08:15:34;1.33;;;1.20;;
13571;SDS011;6857;53.484;10.216;2023-07-28T08:18:00;1.80;;;1.13;;
13571;SDS011;6857;53.484;10.216;2023-07-28T08:20:26;1.30;;;1.20;;
13571;SDS011;6857;53.484;10.216;2023-07-28T08:22:52;1.50;;;1.40;;
13571;SDS011;6857;53.484;10.216;2023-07-28T08:25:18;1.60;;;1.30;;
13571;SDS011;6857;53.484;10.216;2023-07-28T08:27:44;1.23;;;1.10;;
13571;SDS011;6857;53.484;10.216;2023-07-28T08:30:10;1.20;;;1.10;;
13571;SDS011;6857;53.484;10.216;2023-07-28T08:32:36;6.43;;;3.73;;
13571;SDS011;6857;53.484;10.216;2023-07-28T08:35:03;5.87;;;1.93;;
13571;SDS011;6857;53.484;10.216;2023-07-28T08:37:29;7.60;;;3.83;;
13571;SDS011;6857;53.484;10.216;2023-07-28T08:39:55;5.43;;;2.00;;
13571;SDS011;6857;53.484;10.216;2023-07-28T08:42:21;1.50;;;1.40;;
13571;SDS011;6857;53.484;10.216;2023-07-28T08:44:47;1.87;;;1.73;;
13571;SDS011;6857;53.484;10.216;2023-07-28T08:47:17;2.73;;;2.53;;
13571;SDS011;6857;53.484;10.216;2023-07-28T08:49:43;2.27;;;2.00;;
13571;SDS011;6857;53.484;10.216;2023-07-28T08:52:09;4.13;;;2.10;;
13571;SDS011;6857;53.484;10.216;2023-07-28T08:54:35;1.80;;;1.70;;
13571;SDS011;6857;53.484;10.216;2023-07-28T08:57:00;4.05;;;2.05;;
13571;SDS011;6857;53.484;10.216;2023-07-28T08:59:28;2.30;;;2.10;;
13571;SDS011;6857;53.484;10.216;2023-07-28T09:01:55;2.58;;;2.38;;
13571;SDS011;6857;53.484;10.216;2023-07-28T09:04:23;2.97;;;2.10;;
13571;SDS011;6857;53.484;10.216;2023-07-28T09:06:49;3.93;;;2.20;;
13571;SDS011;6857;53.484;10.216;2023-07-28T09:09:16;9.23;;;4.17;;
13571;SDS011;6857;53.484;10.216;2023-07-28T09:11:45;2.77;;;2.40;;
13571;SDS011;6857;53.484;10.216;2023-07-28T09:14:12;5.57;;;2.97;;
13571;SDS011;6857;53.484;10.216;2023-07-28T09:16:38;4.00;;;2.90;;
13571;SDS011;6857;53.484;10.216;2023-07-28T09:19:05;3.30;;;3.00;;
13571;SDS011;6857;53.484;10.216;2023-07-28T09:21:32;2.93;;;2.73;;
13571;SDS011;6857;53.484;10.216;2023-07-28T09:24:01;2.53;;;2.30;;
13571;SDS011;6857;53.484;10.216;2023-07-28T09:26:39;2.97;;;2.60;;
13571;SDS011;6857;53.484;10.216;2023-07-28T09:29:19;5.80;;;3.07;;
13571;SDS011;6857;53.484;10.216;2023-07-28T09:31:46;3.97;;;3.17;;
13571;SDS011;6857;53.484;10.216;2023-07-28T09:34:13;6.30;;;3.60;;
13571;SDS011;6857;53.484;10.216;2023-07-28T09:36:39;4.50;;;2.65;;
13571;SDS011;6857;53.484;10.216;2023-07-28T09:39:05;3.80;;;3.42;;
13571;SDS011;6857;53.484;10.216;2023-07-28T09:41:35;2.90;;;2.70;;
13571;SDS011;6857;53.484;10.216;2023-07-28T09:44:03;3.10;;;2.80;;
13571;SDS011;6857;53.484;10.216;2023-07-28T09:46:29;2.17;;;1.98;;
13571;SDS011;6857;53.484;10.216;2023-07-28T09:48:56;3.22;;;2.72;;
13571;SDS011;6857;53.484;10.216;2023-07-28T09:51:22;3.33;;;2.90;;
13571;SDS011;6857;53.484;10.216;2023-07-28T09:53:53;2.65;;;2.00;;
13571;SDS011;6857;53.484;10.216;2023-07-28T09:56:20;1.83;;;1.55;;
13571;SDS011;6857;53.484;10.216;2023-07-28T09:58:51;1.50;;;1.40;;
13571;SDS011;6857;53.484;10.216;2023-07-28T10:01:18;3.08;;;1.77;;
13571;SDS011;6857;53.484;10.216;2023-07-28T10:03:45;1.50;;;1.40;;
13571;SDS011;6857;53.484;10.216;2023-07-28T10:06:11;2.85;;;2.65;;
13571;SDS011;6857;53.484;10.216;2023-07-28T10:08:37;2.17;;;2.08;;
13571;SDS011;6857;53.484;10.216;2023-07-28T10:11:03;1.92;;;1.80;;
13571;SDS011;6857;53.484;10.216;2023-07-28T10:13:33;1.77;;;1.67;;
13571;SDS011;6857;53.484;10.216;2023-07-28T10:16:04;2.60;;;2.13;;
13571;SDS011;6857;53.484;10.216;2023-07-28T10:18:30;2.03;;;1.63;;
13571;SDS011;6857;53.484;10.216;2023-07-28T10:21:02;2.63;;;1.65;;
13571;SDS011;6857;53.484;10.216;2023-07-28T10:23:29;1.50;;;1.38;;
13571;SDS011;6857;53.484;10.216;2023-07-28T10:25:56;1.45;;;1.35;;
13571;SDS011;6857;53.484;10.216;2023-07-28T10:28:30;2.40;;;2.17;;
13571;SDS011;6857;53.484;10.216;2023-07-28T10:30:57;2.42;;;1.92;;
13571;SDS011;6857;53.484;10.216;2023-07-28T10:33:30;2.08;;;1.75;;
13571;SDS011;6857;53.484;10.216;2023-07-28T10:35:57;2.20;;;2.00;;
13571;SDS011;6857;53.484;10.216;2023-07-28T10:38:33;8.77;;;7.63;;
13571;SDS011;6857;53.484;10.216;2023-07-28T10:43:33;2.40;;;1.77;;
13571;SDS011;6857;53.484;10.216;2023-07-28T10:45:59;1.70;;;1.60;;
13571;SDS011;6857;53.484;10.216;2023-07-28T10:48:25;1.85;;;1.75;;
13571;SDS011;6857;53.484;10.216;2023-07-28T10:50:52;2.38;;;2.17;;
13571;SDS011;6857;53.484;10.216;2023-07-28T10:53:18;2.47;;;2.28;;
13571;SDS011;6857;53.484;10.216;2023-07-28T10:55:44;2.53;;;2.10;;
13571;SDS011;6857;53.484;10.216;2023-07-28T10:58:10;2.38;;;2.17;;
13571;SDS011;6857;53.484;10.216;2023-07-28T11:00:37;2.40;;;2.20;;
13571;SDS011;6857;53.484;10.216;2023-07-28T11:03:03;2.67;;;2.30;;
13571;SDS011;6857;53.484;10.216;2023-07-28T11:05:30;3.88;;;3.15;;
13571;SDS011;6857;53.484;10.216;2023-07-28T11:07:59;3.63;;;3.00;;
13571;SDS011;6857;53.484;10.216;2023-07-28T11:10:29;3.58;;;3.28;;
13571;SDS011;6857;53.484;10.216;2023-07-28T11:12:57;3.00;;;2.80;;
13571;SDS011;6857;53.484;10.216;2023-07-28T11:15:24;2.85;;;2.65;;
13571;SDS011;6857;53.484;10.216;2023-07-28T11:17:51;3.22;;;2.72;;
13571;SDS011;6857;53.484;10.216;2023-07-28T11:20:18;4.10;;;2.80;;
13571;SDS011;6857;53.484;10.216;2023-07-28T11:22:44;3.08;;;2.78;;
13571;SDS011;6857;53.484;10.216;2023-07-28T11:25:11;3.10;;;2.80;;
13571;SDS011;6857;53.484;10.216;2023-07-28T11:27:37;3.08;;;2.78;;
13571;SDS011;6857;53.484;10.216;2023-07-28T11:30:03;2.78;;;2.50;;
13571;SDS011;6857;53.484;10.216;2023-07-28T11:32:30;5.78;;;3.28;;
13571;SDS011;6857;53.484;10.216;2023-07-28T11:35:10;4.15;;;3.70;;
13571;SDS011;6857;53.484;10.216;2023-07-28T11:37:37;3.30;;;3.00;;
13571;SDS011;6857;53.484;10.216;2023-07-28T11:40:03;3.90;;;3.10;;
13571;SDS011;6857;53.484;10.216;2023-07-28T11:42:34;3.00;;;2.80;;
13571;SDS011;6857;53.484;10.216;2023-07-28T11:45:01;4.15;;;3.13;;
13571;SDS011;6857;53.484;10.216;2023-07-28T11:47:28;3.28;;;2.97;;
13571;SDS011;6857;53.484;10.216;2023-07-28T11:49:55;2.67;;;2.47;;
13571;SDS011;6857;53.484;10.216;2023-07-28T11:52:23;3.83;;;2.55;;
13571;SDS011;6857;53.484;10.216;2023-07-28T11:54:49;2.50;;;2.30;;
13571;SDS011;6857;53.484;10.216;2023-07-28T11:57:16;2.78;;;2.50;;
13571;SDS011;6857;53.484;10.216;2023-07-28T11:59:42;2.67;;;2.47;;
13571;SDS011;6857;53.484;10.216;2023-07-28T12:02:09;2.45;;;2.25;;
13571;SDS011;6857;53.484;10.216;2023-07-28T12:04:36;2.72;;;2.53;;
13571;SDS011;6857;53.484;10.216;2023-07-28T12:07:08;2.80;;;2.60;;
13571;SDS011;6857;53.484;10.216;2023-07-28T12:12:11;2.50;;;2.30;;
13571;SDS011;6857;53.484;10.216;2023-07-28T12:14:38;2.85;;;2.55;;
13571;SDS011;6857;53.484;10.216;2023-07-28T12:17:13;2.63;;;2.42;;
13571;SDS011;6857;53.484;10.216;2023-07-28T12:19:40;2.90;;;2.70;;
13571;SDS011;6857;53.484;10.216;2023-07-28T12:22:06;2.72;;;2.53;;
13571;SDS011;6857;53.484;10.216;2023-07-28T12:24:33;2.70;;;2.50;;
13571;SDS011;6857;53.484;10.216;2023-07-28T12:26:59;2.60;;;2.40;;
13571;SDS011;6857;53.484;10.216;2023-07-28T12:29:24;2.42;;;2.22;;
13571;SDS011;6857;53.484;10.216;2023-07-28T12:31:50;2.58;;;2.38;;
13571;SDS011;6857;53.484;10.216;2023-07-28T12:34:16;2.53;;;2.30;;
13571;SDS011;6857;53.484;10.216;2023-07-28T12:36:42;2.80;;;2.60;;
13571;SDS011;6857;53.484;10.216;2023-07-28T12:39:09;3.40;;;2.67;;
13571;SDS011;6857;53.484;10.216;2023-07-28T12:41:35;5.72;;;2.63;;
13571;SDS011;6857;53.484;10.216;2023-07-28T12:44:01;2.75;;;2.42;;
13571;SDS011;6857;53.484;10.216;2023-07-28T12:46:27;2.30;;;2.10;;
13571;SDS011;6857;53.484;10.216;2023-07-28T12:48:54;3.08;;;2.22;;
13571;SDS011;6857;53.484;10.216;2023-07-28T12:51:20;2.35;;;2.17;;
13571;SDS011;6857;53.484;10.216;2023-07-28T12:53:46;5.75;;;2.13;;
13571;SDS011;6857;53.484;10.216;2023-07-28T12:56:12;2.97;;;2.40;;
13571;SDS011;6857;53.484;10.216;2023-07-28T12:58:38;3.95;;;2.20;;
13571;SDS011;6857;53.484;10.216;2023-07-28T13:01:04;1.90;;;1.70;;
13571;SDS011;6857;53.484;10.216;2023-07-28T13:03:30;2.70;;;1.90;;
13571;SDS011;6857;53.484;10.216;2023-07-28T13:05:56;2.53;;;2.08;;
13571;SDS011;6857;53.484;10.216;2023-07-28T13:08:22;1.98;;;1.70;;
13571;SDS011;6857;53.484;10.216;2023-07-28T13:10:48;2.67;;;2.08;;
13571;SDS011;6857;53.484;10.216;2023-07-28T13:13:14;2.10;;;1.95;;
13571;SDS011;6857;53.484;10.216;2023-07-28T13:15:40;2.45;;;2.00;;
13571;SDS011;6857;53.484;10.216;2023-07-28T13:18:06;2.72;;;1.90;;
13571;SDS011;6857;53.484;10.216;2023-07-28T13:20:32;2.28;;;1.80;;
13571;SDS011;6857;53.484;10.216;2023-07-28T13:22:58;2.97;;;2.00;;
13571;SDS011;6857;53.484;10.216;2023-07-28T13:25:24;2.05;;;1.70;;
13571;SDS011;6857;53.484;10.216;2023-07-28T13:27:50;2.17;;;1.95;;
13571;SDS011;6857;53.484;10.216;2023-07-28T13:30:16;4.40;;;1.70;;
13571;SDS011;6857;53.484;10.216;2023-07-28T13:32:42;2.55;;;2.00;;
13571;SDS011;6857;53.484;10.216;2023-07-28T13:35:08;2.60;;;1.70;;
13571;SDS011;6857;53.484;10.216;2023-07-28T13:37:34;4.55;;;2.10;;
13571;SDS011;6857;53.484;10.216;2023-07-28T13:40:00;1.90;;;1.70;;
13571;SDS011;6857;53.484;10.216;2023-07-28T13:42:26;2.47;;;1.50;;
13571;SDS011;6857;53.484;10.216;2023-07-28T13:44:52;1.77;;;1.55;;
13571;SDS011;6857;53.484;10.216;2023-07-28T13:47:18;1.60;;;1.50;;
13571;SDS011;6857;53.484;10.216;2023-07-28T13:49:43;2.10;;;1.55;;
13571;SDS011;6857;53.484;10.216;2023-07-28T13:52:09;2.70;;;1.50;;
13571;SDS011;6857;53.484;10.216;2023-07-28T13:54:35;2.00;;;1.77;;
13571;SDS011;6857;53.484;10.216;2023-07-28T13:57:01;1.67;;;1.55;;
13571;SDS011;6857;53.484;10.216;2023-07-28T13:59:27;1.70;;;1.50;;
13571;SDS011;6857;53.484;10.216;2023-07-28T14:01:53;1.70;;;1.60;;
13571;SDS011;6857;53.484;10.216;2023-07-28T14:04:20;3.05;;;1.65;;
13571;SDS011;6857;53.484;10.216;2023-07-28T14:06:46;1.55;;;1.30;;
13571;SDS011;6857;53.484;10.216;2023-07-28T14:09:12;2.92;;;1.77;;
13571;SDS011;6857;53.484;10.216;2023-07-28T14:11:38;1.55;;;1.30;;
13571;SDS011;6857;53.484;10.216;2023-07-28T14:14:04;1.60;;;1.50;;
13571;SDS011;6857;53.484;10.216;2023-07-28T14:16:30;1.25;;;1.15;;
13571;SDS011;6857;53.484;10.216;2023-07-28T14:18:56;1.60;;;1.50;;
13571;SDS011;6857;53.484;10.216;2023-07-28T14:21:22;1.98;;;1.50;;
13571;SDS011;6857;53.484;10.216;2023-07-28T14:23:48;2.95;;;1.33;;
13571;SDS011;6857;53.484;10.216;2023-07-28T14:26:14;3.63;;;1.48;;
13571;SDS011;6857;53.484;10.216;2023-07-28T14:28:40;3.58;;;2.00;;
13571;SDS011;6857;53.484;10.216;2023-07-28T14:31:06;2.30;;;1.98;;
13571;SDS011;6857;53.484;10.216;2023-07-28T14:33:32;1.63;;;1.30;;
13571;SDS011;6857;53.484;10.216;2023-07-28T14:35:58;2.38;;;1.70;;
13571;SDS011;6857;53.484;10.216;2023-07-28T14:38:24;2.15;;;1.60;;
13571;SDS011;6857;53.484;10.216;2023-07-28T14:40:50;2.45;;;1.58;;
13571;SDS011;6857;53.484;10.216;2023-07-28T14:43:17;4.43;;;1.80;;
13571;SDS011;6857;53.484;10.216;2023-07-28T14:45:43;2.00;;;1.77;;
13571;SDS011;6857;53.484;10.216;2023-07-28T14:48:09;2.63;;;1.83;;
13571;SDS011;6857;53.484;10.216;2023-07-28T14:50:35;2.15;;;1.50;;